Time;durP1;ratioP1;P1;durP2;ratioP2;P2;SDS_P1;SDS_P2;PMS_P1;PMS_P2;Temp;Humidity;BMP_temperature;BMP_pressure;BME280_temperature;BME280_humidity;BME280_pressure;Samples;Min_cycle;Max_cycle;Signal;HPM_P1;HPM_P2
2023/10/31 00:03:51;;;;;;;31.30;14.35;;;;;;;10.42;100.00;99246.25;10418443;28;20050;-72
2023/10/31 00:08:52;;;;;;;39.85;14.30;;;;;;;10.42;100.00;99253.69;10417936;28;20033;-71
2023/10/31 00:13:52;;;;;;;35.20;13.40;;;;;;;10.44;100.00;99251.47;10419953;28;20045;-71
2023/10/31 00:18:53;;;;;;;35.88;13.40;;;;;;;10.45;100.00;99247.59;10434886;28;20038;-71
2023/10/31 00:23:53;;;;;;;29.30;11.07;;;;;;;10.47;100.00;99242.63;10417772;28;20045;-71
2023/10/31 00:28:54;;;;;;;26.90;10.00;;;;;;;10.43;100.00;99239.63;10418312;28;20041;-72
2023/10/31 00:33:55;;;;;;;27.55;9.30;;;;;;;10.43;100.00;99236.88;10417721;28;20037;-68
2023/10/31 00:38:55;;;;;;;28.85;10.23;;;;;;;10.36;100.00;99236.44;10419351;28;20055;-70
2023/10/31 00:43:56;;;;;;;26.05;12.38;;;;;;;10.31;100.00;99225.47;10417779;28;20044;-71
2023/10/31 00:48:57;;;;;;;23.92;11.20;;;;;;;10.29;100.00;99233.16;10400861;28;20053;-71
2023/10/31 00:53:57;;;;;;;32.55;12.23;;;;;;;10.22;100.00;99219.75;10419380;28;20415;-70
2023/10/31 00:58:58;;;;;;;31.75;12.32;;;;;;;10.19;100.00;99228.63;10400821;28;20037;-70
2023/10/31 01:03:58;;;;;;;26.60;10.15;;;;;;;10.16;100.00;99240.19;10415904;28;20052;-70
2023/10/31 01:08:59;;;;;;;23.65;8.23;;;;;;;10.12;100.00;99228.13;10432426;28;20037;-71
2023/10/31 01:13:59;;;;;;;15.80;5.40;;;;;;;10.09;100.00;99225.97;10418442;28;20478;-71
2023/10/31 01:19:00;;;;;;;15.30;4.50;;;;;;;10.00;100.00;99222.22;10418337;28;20053;-70
2023/10/31 01:24:00;;;;;;;17.92;4.57;;;;;;;9.91;100.00;99213.78;10418663;28;20033;-70
2023/10/31 01:29:01;;;;;;;18.23;4.15;;;;;;;9.84;100.00;99216.06;10417499;28;20068;-68
2023/10/31 01:34:01;;;;;;;18.45;4.53;;;;;;;9.82;100.00;99221.84;10408581;28;20060;-70
2023/10/31 01:39:01;;;;;;;17.17;4.25;;;;;;;9.81;100.00;99235.88;10416266;28;20033;-71
2023/10/31 01:44:02;;;;;;;12.80;5.03;;;;;;;9.76;100.00;99238.69;10415175;28;20056;-72
2023/10/31 01:49:03;;;;;;;15.57;5.57;;;;;;;9.70;100.00;99235.16;10415606;28;20038;-71
2023/10/31 01:54:03;;;;;;;13.73;5.10;;;;;;;9.61;100.00;99217.63;10416059;28;20033;-71
2023/10/31 01:59:05;;;;;;;14.13;6.00;;;;;;;9.63;100.00;99226.41;10415384;28;20045;-71
2023/10/31 02:04:05;;;;;;;10.57;4.85;;;;;;;9.62;100.00;99228.34;10408236;28;20041;-70
2023/10/31 02:09:06;;;;;;;5.32;2.78;;;;;;;9.59;100.00;99223.44;10413789;28;20076;-70
2023/10/31 02:14:06;;;;;;;5.65;2.45;;;;;;;9.58;100.00;99218.22;10398093;28;20037;-70
2023/10/31 02:19:07;;;;;;;7.68;2.55;;;;;;;8.73;100.00;99093.97;10415944;28;20040;-69
2023/10/31 02:24:07;;;;;;;7.32;2.20;;;;;;;9.47;100.00;99221.06;10398009;28;20037;-71
2023/10/31 02:29:08;;;;;;;8.50;2.20;;;;;;;9.45;100.00;99226.03;10395483;28;20045;-70
2023/10/31 02:34:08;;;;;;;6.80;2.15;;;;;;;9.45;100.00;99223.28;10413819;28;20065;-71
2023/10/31 02:39:09;;;;;;;4.15;1.63;;;;;;;9.43;100.00;99228.22;10414559;28;20055;-70
2023/10/31 02:44:09;;;;;;;6.57;1.45;;;;;;;9.33;100.00;99211.03;10413714;28;20037;-72
2023/10/31 02:49:10;;;;;;;4.55;1.65;;;;;;;9.37;100.00;99218.41;10421948;28;20038;-69
2023/10/31 02:54:10;;;;;;;6.15;1.75;;;;;;;9.34;100.00;99218.94;10423983;28;20044;-70
2023/10/31 02:59:11;;;;;;;3.40;1.80;;;;;;;9.27;100.00;99222.03;10404825;28;20084;-71
2023/10/31 03:04:11;;;;;;;4.72;1.90;;;;;;;9.32;100.00;99220.34;10404692;28;20044;-70
2023/10/31 03:09:12;;;;;;;9.68;2.30;;;;;;;9.28;100.00;99231.94;10387926;28;20401;-70
2023/10/31 03:14:12;;;;;;;8.38;2.47;;;;;;;9.16;100.00;99228.72;10422441;28;20490;-70
2023/10/31 03:19:13;;;;;;;9.50;2.63;;;;;;;9.15;100.00;99243.53;10405109;28;20501;-70
2023/10/31 03:24:13;;;;;;;10.30;2.35;;;;;;;9.08;100.00;99243.84;10421239;28;20026;-70
2023/10/31 03:29:13;;;;;;;9.82;2.78;;;;;;;9.09;100.00;99259.25;10421702;28;20037;-68
2023/10/31 03:34:14;;;;;;;7.95;2.67;;;;;;;9.06;100.00;99270.78;10420149;28;20041;-69
2023/10/31 03:39:14;;;;;;;11.57;3.33;;;;;;;8.98;100.00;99259.56;10403557;28;20433;-69
2023/10/31 03:44:15;;;;;;;11.13;3.15;;;;;;;9.08;100.00;99278.75;10427890;28;20045;-70
2023/10/31 03:49:15;;;;;;;16.75;4.10;;;;;;;9.08;100.00;99292.47;10419153;28;20072;-69
2023/10/31 03:54:17;;;;;;;6.25;2.55;;;;;;;9.09;100.00;99297.69;10420315;28;20065;-70
2023/10/31 03:59:17;;;;;;;7.13;3.00;;;;;;;9.09;100.00;99305.91;10402136;28;20064;-68
2023/10/31 04:04:18;;;;;;;9.55;3.50;;;;;;;9.05;100.00;99310.31;10435153;28;20056;-69
2023/10/31 04:09:24;;;;;;;8.43;2.70;;;;;;;9.17;100.00;99329.19;10414743;28;20320;-70
2023/10/31 04:14:25;;;;;;;8.75;2.92;;;;;;;9.18;100.00;99325.34;10401635;28;20049;-69
2023/10/31 04:19:25;;;;;;;14.50;3.17;;;;;;;9.15;100.00;99336.88;10421308;28;20048;-70
2023/10/31 04:24:26;;;;;;;8.18;3.58;;;;;;;9.16;100.00;99357.75;10418231;28;20425;-70
2023/10/31 04:29:26;;;;;;;13.60;5.57;;;;;;;9.09;100.00;99349.84;10419966;28;20049;-69
2023/10/31 04:34:27;;;;;;;15.45;5.88;;;;;;;9.00;100.00;99354.25;10401152;28;20041;-69
2023/10/31 04:39:27;;;;;;;10.95;6.10;;;;;;;9.06;100.00;99371.53;10400768;28;20041;-69
2023/10/31 04:44:28;;;;;;;17.27;6.32;;;;;;;9.05;100.00;99376.22;10419874;28;20041;-70
2023/10/31 04:49:28;;;;;;;14.15;6.45;;;;;;;8.99;100.00;99377.34;10417997;28;20053;-68
2023/10/31 04:54:28;;;;;;;19.38;7.30;;;;;;;9.00;100.00;99392.69;10417716;28;20133;-69
2023/10/31 04:59:29;;;;;;;14.05;5.97;;;;;;;9.12;100.00;99397.06;10400493;28;20049;-70
2023/10/31 05:04:29;;;;;;;13.85;6.38;;;;;;;9.12;100.00;99410.78;10417354;28;20033;-70
2023/10/31 05:09:30;;;;;;;17.20;6.25;;;;;;;9.14;100.00;99411.31;10416898;28;20314;-69
2023/10/31 05:14:30;;;;;;;14.45;6.55;;;;;;;9.16;100.00;99423.66;10417558;28;20041;-70
2023/10/31 05:19:31;;;;;;;10.38;5.43;;;;;;;9.18;100.00;99423.38;10418423;28;20029;-69
2023/10/31 05:24:32;;;;;;;10.18;4.25;;;;;;;9.15;100.00;99434.91;10417693;28;20400;-70
2023/10/31 05:29:32;;;;;;;10.98;4.00;;;;;;;9.16;100.00;99444.81;10415843;28;20053;-70
2023/10/31 05:34:33;;;;;;;10.95;4.00;;;;;;;9.14;100.00;99444.28;10414447;28;20045;-70
2023/10/31 05:39:33;;;;;;;8.25;3.00;;;;;;;9.13;100.00;99453.59;10409673;28;20055;-69
2023/10/31 05:44:34;;;;;;;7.95;3.45;;;;;;;9.11;100.00;99472.28;10406406;28;20041;-69
2023/10/31 05:49:34;;;;;;;3.83;2.70;;;;;;;9.04;100.00;99470.63;10414905;28;20058;-70
2023/10/31 05:54:35;;;;;;;5.38;1.98;;;;;;;9.09;100.00;99478.03;10416232;28;20056;-71
2023/10/31 05:59:35;;;;;;;5.78;1.73;;;;;;;9.15;100.00;99479.66;10414193;28;20087;-70
2023/10/31 06:04:35;;;;;;;7.20;1.65;;;;;;;9.16;100.00;99480.50;10392394;28;20072;-70
2023/10/31 06:09:36;;;;;;;9.43;1.95;;;;;;;9.20;100.00;99487.06;10430157;28;20038;-70
2023/10/31 06:14:37;;;;;;;11.38;4.10;;;;;;;9.18;100.00;99490.09;10414162;28;20072;-70
2023/10/31 06:19:37;;;;;;;34.63;14.88;;;;;;;9.20;100.00;99489.81;10380403;28;20038;-71
2023/10/31 06:24:38;;;;;;;47.88;24.75;;;;;;;9.18;100.00;99487.34;10415081;28;20524;-69
2023/10/31 06:29:38;;;;;;;28.23;15.02;;;;;;;9.14;100.00;99493.69;10393173;28;20049;-70
2023/10/31 06:34:39;;;;;;;17.15;9.85;;;;;;;9.14;100.00;99507.41;10415169;28;20068;-72
2023/10/31 06:39:39;;;;;;;39.05;19.95;;;;;;;9.21;100.00;99500.50;10380629;28;20056;-70
2023/10/31 06:44:40;;;;;;;41.42;23.98;;;;;;;9.13;100.00;99497.53;10413551;28;20364;-70
2023/10/31 06:49:40;;;;;;;43.17;25.48;;;;;;;9.27;100.00;99515.06;10414905;28;20053;-70
2023/10/31 06:54:41;;;;;;;38.00;20.98;;;;;;;9.28;100.00;99527.69;10413377;28;20038;-71
2023/10/31 06:59:41;;;;;;;30.60;16.77;;;;;;;9.31;100.00;99521.63;10413752;28;20040;-70
2023/10/31 07:04:42;;;;;;;8.68;4.45;;;;;;;9.01;100.00;99490.44;10412620;28;20033;-71
2023/10/31 07:09:42;;;;;;;6.75;3.95;;;;;;;9.31;100.00;99531.81;10413109;28;20029;-70
2023/10/31 07:14:43;;;;;;;10.70;4.20;;;;;;;9.31;100.00;99551.03;10396731;28;20056;-69
2023/10/31 07:19:43;;;;;;;8.35;5.43;;;;;;;9.32;100.00;99553.47;10413120;28;20033;-70
2023/10/31 07:24:44;;;;;;;9.30;5.95;;;;;;;9.35;100.00;99550.19;10412589;28;20075;-71
2023/10/31 07:29:46;;;;;;;14.13;7.38;;;;;;;9.31;100.00;99540.88;10413284;28;20034;-70
2023/10/31 07:34:46;;;;;;;14.57;8.00;;;;;;;9.41;100.00;99562.81;10434919;28;20041;-70
2023/10/31 07:39:47;;;;;;;18.77;9.70;;;;;;;9.42;100.00;99558.13;10416840;28;20042;-71
2023/10/31 07:44:47;;;;;;;11.45;7.05;;;;;;;9.43;100.00;99563.34;10417002;28;20042;-70
2023/10/31 07:49:48;;;;;;;15.00;7.35;;;;;;;9.45;100.00;99580.38;10421586;28;20363;-70
2023/10/31 07:54:49;;;;;;;15.00;7.47;;;;;;;9.39;100.00;99561.44;10419539;28;20045;-70
2023/10/31 07:59:49;;;;;;;11.88;6.15;;;;;;;9.49;100.00;99566.91;10419341;28;20061;-70
2023/10/31 08:04:49;;;;;;;10.18;6.28;;;;;;;9.39;100.00;99540.28;10418072;28;20041;-69
2023/10/31 08:09:50;;;;;;;10.90;7.43;;;;;;;9.53;100.00;99553.44;10421077;28;20049;-71
2023/10/31 08:14:50;;;;;;;12.27;7.55;;;;;;;9.64;100.00;99574.28;10394406;28;20072;-70
2023/10/31 08:19:51;;;;;;;14.02;6.00;;;;;;;9.67;100.00;99571.81;10419099;28;20049;-71
2023/10/31 08:24:51;;;;;;;8.57;5.35;;;;;;;9.77;100.00;99579.16;10418644;28;20037;-71
2023/10/31 08:29:52;;;;;;;15.73;5.80;;;;;;;9.83;100.00;99588.22;10409538;28;20052;-71
2023/10/31 08:34:54;;;;;;;6.45;3.70;;;;;;;9.83;100.00;99594.53;10410621;28;20041;-70
2023/10/31 08:39:54;;;;;;;8.13;3.42;;;;;;;9.87;100.00;99592.88;10415189;28;20065;-71
2023/10/31 08:44:54;;;;;;;10.52;3.45;;;;;;;10.01;100.00;99595.03;10408408;28;20034;-70
2023/10/31 08:49:55;;;;;;;8.25;4.60;;;;;;;10.12;100.00;99615.88;10413050;28;20038;-71
2023/10/31 08:54:55;;;;;;;12.23;6.38;;;;;;;10.28;100.00;99622.94;10408214;28;20049;-70
2023/10/31 08:59:56;;;;;;;13.98;6.03;;;;;;;10.07;100.00;99588.41;10418863;28;20037;-71
2023/10/31 09:04:57;;;;;;;9.63;4.20;;;;;;;10.33;100.00;99635.06;10404013;28;20041;-71
2023/10/31 09:09:57;;;;;;;9.32;2.05;;;;;;;10.32;100.00;99649.94;10411195;28;20034;-71
2023/10/31 09:14:57;;;;;;;8.15;1.95;;;;;;;10.29;100.00;99652.16;10410271;28;20458;-70
2023/10/31 09:19:59;;;;;;;6.22;1.75;;;;;;;10.36;100.00;99656.53;10406513;28;20033;-71
2023/10/31 09:24:59;;;;;;;7.35;1.08;;;;;;;10.41;100.00;99676.56;10411291;28;20064;-71
2023/10/31 09:30:00;;;;;;;2.97;0.90;;;;;;;10.46;100.00;99678.47;10416943;28;20042;-71
2023/10/31 09:35:00;;;;;;;7.20;2.33;;;;;;;10.55;100.00;99681.47;10416353;28;20048;-71
2023/10/31 09:40:01;;;;;;;2.70;1.13;;;;;;;10.55;100.00;99700.72;10417326;28;20041;-70
2023/10/31 09:45:01;;;;;;;6.10;0.82;;;;;;;10.50;100.00;99723.59;10416243;28;20054;-72
2023/10/31 09:50:02;;;;;;;9.00;2.95;;;;;;;10.34;100.00;99747.59;10398626;28;20076;-73
2023/10/31 09:55:03;;;;;;;8.60;1.40;;;;;;;10.25;100.00;99765.72;10416211;28;20397;-72
2023/10/31 10:00:04;;;;;;;5.70;0.90;;;;;;;10.18;100.00;99799.03;10410695;28;21755;-69
2023/10/31 10:05:05;;;;;;;11.63;1.20;;;;;;;10.14;100.00;99824.63;10390969;28;20056;-68
2023/10/31 10:10:09;;;;;;;4.38;0.90;;;;;;;10.12;100.00;99840.56;10392466;28;20051;-74
2023/10/31 10:15:10;;;;;;;13.60;0.98;;;;;;;10.11;100.00;99848.00;10358397;28;20050;-73
2023/10/31 10:20:11;;;;;;;5.43;1.00;;;;;;;10.06;100.00;99848.81;10387496;28;20056;-72
2023/10/31 10:25:16;;;;;;;4.93;0.50;;;;;;;10.23;100.00;99867.78;10390073;28;20106;-74
2023/10/31 10:30:17;;;;;;;4.72;0.90;;;;;;;10.42;100.00;99872.75;10389769;28;20080;-72
2023/10/31 10:35:18;;;;;;;2.47;0.50;;;;;;;10.40;100.00;99883.22;10392420;28;20131;-73
2023/10/31 10:40:19;;;;;;;1.60;0.57;;;;;;;10.62;100.00;99869.94;10391555;28;20041;-74
2023/10/31 10:45:20;;;;;;;6.03;0.80;;;;;;;10.60;100.00;99888.66;10390092;28;20449;-74
2023/10/31 10:50:21;;;;;;;14.65;3.20;;;;;;;10.76;100.00;99916.97;10373148;28;20053;-74
2023/10/31 10:55:25;;;;;;;2.83;0.60;;;;;;;10.68;100.00;99923.88;10389921;28;20065;-74
2023/10/31 11:00:25;;;;;;;4.88;1.70;;;;;;;10.73;100.00;99930.47;10387414;28;20053;-75
2023/10/31 11:05:26;;;;;;;2.55;0.30;;;;;;;10.88;100.00;99930.44;10388204;28;20037;-74
2023/10/31 11:10:27;;;;;;;2.08;0.30;;;;;;;10.99;100.00;99945.00;10397740;28;20128;-73
2023/10/31 11:15:27;;;;;;;4.13;0.50;;;;;;;11.14;100.00;99960.66;10378280;28;20045;-74
2023/10/31 11:20:29;;;;;;;4.30;0.60;;;;;;;11.41;100.00;99963.03;10364032;28;20137;-74
2023/10/31 11:25:30;;;;;;;2.20;0.35;;;;;;;11.22;100.00;99963.66;10397676;28;20049;-75
2023/10/31 11:30:34;;;;;;;2.35;0.60;;;;;;;11.40;100.00;99976.00;10363863;28;20053;-75
2023/10/31 11:35:36;;;;;;;3.22;0.25;;;;;;;11.81;100.00;99974.97;10396299;28;20104;-79
2023/10/31 11:40:57;;;;;;;2.15;0.40;;;;;;;11.44;100.00;99973.50;10397228;28;20076;-80
2023/10/31 11:45:59;;;;;;;1.17;0.55;;;;;;;11.58;100.00;99973.72;10381631;28;20415;-79
2023/10/31 11:51:00;;;;;;;6.47;1.05;;;;;;;11.71;100.00;99978.63;10395956;28;20448;-79
2023/10/31 11:56:00;;;;;;;1.38;0.40;;;;;;;12.26;100.00;99984.09;10397959;28;20108;-79
2023/10/31 12:01:03;;;;;;;2.80;1.20;;;;;;;12.65;100.00;100002.53;10395654;28;20050;-78
2023/10/31 12:06:04;;;;;;;4.63;0.73;;;;;;;12.07;100.00;100004.09;10397614;28;20140;-79
2023/10/31 12:11:05;;;;;;;6.22;1.00;;;;;;;11.50;100.00;100019.25;10394932;28;20037;-78
2023/10/31 12:16:06;;;;;;;8.02;0.90;;;;;;;11.45;100.00;100030.28;10377870;28;20084;-78
2023/10/31 12:21:08;;;;;;;7.07;0.65;;;;;;;11.48;100.00;100040.75;10395379;28;20029;-78
2023/10/31 12:26:10;;;;;;;5.65;0.77;;;;;;;11.39;100.00;100042.41;10396920;28;20034;-77
2023/10/31 12:31:10;;;;;;;8.45;0.80;;;;;;;11.28;100.00;100058.16;10395226;28;20567;-78
2023/10/31 12:36:11;;;;;;;3.63;0.70;;;;;;;11.02;100.00;100052.69;10394278;28;20049;-79
2023/10/31 12:41:11;;;;;;;9.75;1.02;;;;;;;11.06;100.00;100084.09;10376972;28;20044;-78
2023/10/31 12:46:31;;;;;;;2.08;0.65;;;;;;;10.90;100.00;100087.97;10409636;28;20060;-80
2023/10/31 12:51:31;;;;;;;3.42;0.60;;;;;;;10.79;100.00;100105.56;10394687;28;20034;-78
2023/10/31 12:56:41;;;;;;;4.22;0.77;;;;;;;10.75;100.00;100098.94;10419296;28;20057;-80
2023/10/31 13:01:44;;;;;;;7.85;1.00;;;;;;;10.75;100.00;100109.97;10413021;28;20037;-81
2023/10/31 13:06:55;;;;;;;7.25;0.93;;;;;;;10.77;100.00;100110.53;10418836;28;20041;-80
2023/10/31 13:12:03;;;;;;;5.85;1.10;;;;;;;10.67;100.00;100114.94;10410251;28;20092;-79
2023/10/31 13:17:04;;;;;;;6.07;0.90;;;;;;;10.61;100.00;100115.22;10415931;28;20049;-78
2023/10/31 13:22:04;;;;;;;6.30;1.20;;;;;;;10.52;100.00;100128.66;10418115;28;20053;-79
2023/10/31 13:27:06;;;;;;;6.50;1.13;;;;;;;10.37;100.00;100117.63;10416677;28;20045;-79
2023/10/31 13:32:06;;;;;;;6.55;0.90;;;;;;;10.46;100.00;100143.53;10416844;28;20041;-85
2023/10/31 13:37:08;;;;;;;5.85;1.15;;;;;;;10.42;100.00;100147.91;10414874;28;20061;-85
2023/10/31 13:42:10;;;;;;;3.38;0.57;;;;;;;10.35;100.00;100141.84;10415337;28;20052;-85
2023/10/31 13:47:10;;;;;;;4.80;0.85;;;;;;;10.32;100.00;100151.47;10414147;28;20038;-86
2023/10/31 13:52:11;;;;;;;8.30;0.70;;;;;;;10.11;100.00;100134.03;10381822;28;20037;-80
2023/10/31 13:57:11;;;;;;;9.02;0.95;;;;;;;10.24;100.00;100166.53;10416795;28;20041;-80
2023/10/31 14:02:12;;;;;;;7.63;1.52;;;;;;;10.24;100.00;100173.97;10414412;28;20045;-86
2023/10/31 14:07:23;;;;;;;3.90;0.70;;;;;;;10.12;100.00;100174.19;10416018;28;20057;-80
2023/10/31 14:12:24;;;;;;;3.65;0.80;;;;;;;10.14;100.00;100187.66;10382061;28;20052;-81
2023/10/31 14:17:25;;;;;;;8.25;1.40;;;;;;;10.16;100.00;100186.31;10413875;28;20046;-81
2023/10/31 14:22:25;;;;;;;3.65;0.75;;;;;;;10.12;100.00;100190.69;10388498;28;20041;-82
2023/10/31 14:27:25;;;;;;;13.18;0.77;;;;;;;9.98;100.00;100195.00;10390974;28;21332;-80
2023/10/31 14:32:26;;;;;;;4.47;0.80;;;;;;;9.93;100.00;100206.81;10389811;28;20045;-81
2023/10/31 14:37:27;;;;;;;7.78;1.33;;;;;;;9.88;100.00;100196.63;10389427;28;20088;-80
2023/10/31 14:42:28;;;;;;;4.00;0.90;;;;;;;9.92;100.00;100207.06;10390414;28;20044;-81
2023/10/31 14:47:28;;;;;;;4.28;0.88;;;;;;;9.95;100.00;100206.56;10391515;28;20584;-80
2023/10/31 14:52:29;;;;;;;5.18;0.80;;;;;;;10.01;100.00;100211.00;10390511;28;20128;-81
2023/10/31 14:57:29;;;;;;;8.23;1.02;;;;;;;10.05;100.00;100217.63;10392247;28;20049;-79
2023/10/31 15:02:30;;;;;;;4.55;0.88;;;;;;;10.12;100.00;100223.69;10392291;28;20049;-80
2023/10/31 15:07:30;;;;;;;3.60;0.82;;;;;;;10.04;100.00;100221.44;10390103;28;20045;-80
2023/10/31 15:12:31;;;;;;;5.00;0.80;;;;;;;10.01;100.00;100225.56;10390484;28;20041;-81
2023/10/31 15:17:31;;;;;;;4.65;0.63;;;;;;;9.99;100.00;100224.19;10389859;28;20081;-80
2023/10/31 15:22:32;;;;;;;6.65;1.20;;;;;;;9.89;100.00;100234.00;10389845;28;20056;-80
2023/10/31 15:27:32;;;;;;;2.70;0.73;;;;;;;9.83;100.00;100235.06;10390509;28;20044;-80
2023/10/31 15:32:34;;;;;;;7.35;1.20;;;;;;;9.72;100.00;100241.59;10398779;28;20034;-87
2023/10/31 15:37:34;;;;;;;3.85;0.93;;;;;;;9.63;100.00;100252.25;10413800;28;20056;-80
2023/10/31 15:42:35;;;;;;;5.72;1.40;;;;;;;9.50;100.00;100264.50;10427082;28;20056;-81
2023/10/31 15:47:35;;;;;;;6.30;1.33;;;;;;;9.43;100.00;100265.84;10417131;28;20041;-82
2023/10/31 15:52:36;;;;;;;8.55;1.13;;;;;;;9.40;100.00;100283.66;10416295;28;20041;-82
2023/10/31 15:57:36;;;;;;;8.15;1.30;;;;;;;9.35;100.00;100280.88;10421224;28;20092;-71
2023/10/31 16:02:37;;;;;;;12.27;1.30;;;;;;;9.29;100.00;100284.66;10403947;28;21662;-82
2023/10/31 16:07:39;;;;;;;7.10;2.25;;;;;;;9.22;100.00;100286.78;10421063;28;20105;-83
2023/10/31 16:12:39;;;;;;;5.57;1.40;;;;;;;9.15;100.00;100276.00;10398868;28;20049;-83
2023/10/31 16:17:40;;;;;;;7.97;1.10;;;;;;;9.17;100.00;100295.78;10412924;28;20041;-83
2023/10/31 16:22:40;;;;;;;6.05;1.17;;;;;;;9.15;100.00;100300.72;10409637;28;20034;-83
2023/10/31 16:27:41;;;;;;;4.45;1.58;;;;;;;9.12;100.00;100300.44;10410227;28;20045;-83
2023/10/31 16:32:41;;;;;;;6.97;1.33;;;;;;;9.05;100.00;100304.22;10416830;28;20038;-84
2023/10/31 16:37:42;;;;;;;8.18;2.25;;;;;;;9.02;100.00;100315.69;10407806;28;20072;-84
2023/10/31 16:42:42;;;;;;;3.45;1.00;;;;;;;9.00;100.00;100322.53;10399211;28;20048;-83
2023/10/31 16:47:44;;;;;;;8.60;1.60;;;;;;;8.99;100.00;100332.69;10392693;28;20389;-82
2023/10/31 16:52:44;;;;;;;8.35;1.13;;;;;;;8.97;100.00;100334.88;10391328;28;20053;-82
2023/10/31 16:57:45;;;;;;;4.93;1.20;;;;;;;8.92;100.00;100333.97;10392196;28;20057;-82
2023/10/31 17:02:45;;;;;;;12.10;1.92;;;;;;;8.87;100.00;100340.25;10390634;28;20124;-82
2023/10/31 17:07:46;;;;;;;8.88;1.40;;;;;;;8.79;100.00;100354.41;10392598;28;20071;-83
2023/10/31 17:12:46;;;;;;;5.03;1.70;;;;;;;8.70;100.00;100348.50;10390951;28;20754;-82
2023/10/31 17:17:47;;;;;;;5.30;2.67;;;;;;;8.72;100.00;100359.25;10390511;28;20131;-84
2023/10/31 17:22:48;;;;;;;7.05;1.25;;;;;;;8.69;100.00;100360.59;10393257;28;20052;-84
2023/10/31 17:27:48;;;;;;;4.22;1.27;;;;;;;8.71;100.00;100368.56;10392188;28;20045;-84
2023/10/31 17:32:49;;;;;;;4.88;1.10;;;;;;;8.69;100.00;100366.09;10388298;28;20045;-84
2023/10/31 17:37:49;;;;;;;7.05;1.17;;;;;;;8.69;100.00;100366.91;10391330;28;20045;-84
2023/10/31 17:42:50;;;;;;;3.78;1.08;;;;;;;8.66;100.00;100372.91;10395969;28;20037;-83
2023/10/31 17:47:51;;;;;;;4.85;1.23;;;;;;;8.66;100.00;100378.41;10422310;28;20084;-72
2023/10/31 17:52:52;;;;;;;8.93;2.40;;;;;;;8.67;100.00;100373.72;10428391;28;20042;-75
2023/10/31 17:57:52;;;;;;;7.47;1.15;;;;;;;8.67;100.00;100380.03;10425384;28;20037;-83
2023/10/31 18:02:57;;;;;;;9.25;1.45;;;;;;;8.66;100.00;100378.41;10419251;28;20044;-84
2023/10/31 18:07:58;;;;;;;6.70;1.48;;;;;;;8.57;100.00;100365.38;10415752;28;20067;-82
2023/10/31 18:12:58;;;;;;;7.30;1.88;;;;;;;8.59;100.00;100383.22;10415567;28;20033;-84
2023/10/31 18:17:59;;;;;;;5.10;1.58;;;;;;;8.59;100.00;100388.72;10421257;28;20045;-83
2023/10/31 18:22:59;;;;;;;2.35;1.00;;;;;;;8.51;100.00;100380.91;10398932;28;20042;-83
2023/10/31 18:28:00;;;;;;;6.63;1.27;;;;;;;8.50;100.00;100376.53;10401085;28;20056;-83
2023/10/31 18:33:02;;;;;;;4.78;1.30;;;;;;;8.52;100.00;100388.09;10414362;28;20084;-84
2023/10/31 18:38:03;;;;;;;3.65;1.45;;;;;;;8.50;100.00;100389.41;10426906;28;20132;-84
2023/10/31 18:43:03;;;;;;;6.47;2.03;;;;;;;8.50;100.00;100389.41;10424372;28;20037;-81
2023/10/31 18:48:04;;;;;;;7.80;1.90;;;;;;;8.49;100.00;100394.06;10422398;28;20048;-80
2023/10/31 18:53:04;;;;;;;8.35;2.20;;;;;;;8.48;100.00;100378.69;10428751;28;20066;-82
2023/10/31 18:58:05;;;;;;;6.68;2.80;;;;;;;8.51;100.00;100391.06;10436596;28;20053;-82
2023/10/31 19:03:05;;;;;;;10.38;2.38;;;;;;;8.52;100.00;100390.81;10426833;28;20038;-82
2023/10/31 19:08:06;;;;;;;11.15;2.67;;;;;;;8.54;100.00;100390.53;10426078;28;20037;-81
2023/10/31 19:13:06;;;;;;;6.43;2.75;;;;;;;8.57;100.00;100390.88;10424359;28;20053;-82
2023/10/31 19:18:07;;;;;;;5.07;2.60;;;;;;;8.58;100.00;100398.03;10420472;28;20045;-82
2023/10/31 19:23:07;;;;;;;8.45;3.20;;;;;;;8.63;100.00;100394.53;10422192;28;20064;-83
2023/10/31 19:28:08;;;;;;;4.68;2.58;;;;;;;8.65;100.00;100397.84;10401178;28;20034;-85
2023/10/31 19:33:08;;;;;;;7.07;3.22;;;;;;;8.66;100.00;100397.59;10404810;28;20061;-83
2023/10/31 19:38:09;;;;;;;6.57;2.97;;;;;;;8.63;100.00;100386.31;10381032;28;20049;-86
2023/10/31 19:43:11;;;;;;;9.65;3.03;;;;;;;8.69;100.00;100391.59;10422785;28;20029;-85
2023/10/31 19:48:11;;;;;;;8.63;3.10;;;;;;;8.71;100.00;100396.03;10425381;28;20473;-86
2023/10/31 19:53:12;;;;;;;6.47;2.70;;;;;;;8.67;100.00;100396.50;10404877;28;20033;-84
2023/10/31 19:58:13;;;;;;;7.90;3.60;;;;;;;8.66;100.00;100394.00;10414568;28;20072;-85
2023/10/31 20:03:13;;;;;;;5.63;3.10;;;;;;;8.67;100.00;100391.03;10415160;28;20041;-85
2023/10/31 20:08:16;;;;;;;8.02;3.30;;;;;;;8.62;100.00;100385.47;10424587;28;20101;-87
2023/10/31 20:13:17;;;;;;;6.63;4.15;;;;;;;8.69;100.00;100391.59;10415974;28;20083;-87
2023/10/31 20:18:18;;;;;;;6.50;3.40;;;;;;;8.71;100.00;100396.03;10416817;28;20045;-87
2023/10/31 20:23:19;;;;;;;14.75;3.90;;;;;;;8.68;100.00;100397.34;10429417;28;20064;-86
2023/10/31 20:28:19;;;;;;;8.65;4.25;;;;;;;8.58;100.00;100381.59;10426692;28;20044;-87
2023/10/31 20:33:20;;;;;;;9.75;5.10;;;;;;;8.72;100.00;100386.69;10449602;28;20059;-86
2023/10/31 20:38:20;;;;;;;15.50;5.05;;;;;;;8.71;100.00;100385.03;10406490;28;20048;-85
2023/10/31 20:43:21;;;;;;;10.30;5.30;;;;;;;8.68;100.00;100381.72;10427599;28;20759;-87
2023/10/31 20:48:22;;;;;;;12.82;5.60;;;;;;;8.70;100.00;100389.69;10419289;28;20068;-87
2023/10/31 20:53:22;;;;;;;10.13;5.80;;;;;;;8.73;100.00;100391.09;10439916;28;20041;-87
2023/10/31 20:58:23;;;;;;;9.40;5.80;;;;;;;8.75;100.00;100383.44;10431875;28;20464;-87
2023/10/31 21:03:23;;;;;;;10.27;6.72;;;;;;;8.73;100.00;100382.88;10442028;28;20056;-87
2023/10/31 21:08:23;;;;;;;11.77;6.18;;;;;;;8.71;100.00;100385.03;10430643;28;20041;-86
2023/10/31 21:13:24;;;;;;;11.88;5.50;;;;;;;8.63;100.00;100384.38;10423940;28;20107;-86
2023/10/31 21:18:24;;;;;;;12.70;6.05;;;;;;;8.63;100.00;100386.31;10422681;28;20061;-88
2023/10/31 21:23:25;;;;;;;16.58;6.40;;;;;;;8.65;100.00;100387.69;10407559;28;20048;-86
2023/10/31 21:28:27;;;;;;;11.23;7.38;;;;;;;8.67;100.00;100374.56;10406387;28;20548;-86
2023/10/31 21:33:27;;;;;;;15.02;7.55;;;;;;;8.70;100.00;100367.72;10415308;28;20045;-87
2023/10/31 21:38:28;;;;;;;15.27;7.18;;;;;;;8.71;100.00;100365.84;10419941;28;20073;-87
2023/10/31 21:43:28;;;;;;;11.63;7.07;;;;;;;8.68;100.00;100369.91;10419636;28;20038;-87
2023/10/31 21:48:29;;;;;;;13.75;7.93;;;;;;;8.68;100.00;100369.91;10401297;28;20072;-88
2023/10/31 21:53:29;;;;;;;13.80;8.10;;;;;;;8.69;100.00;100372.38;10424712;28;20029;-88
2023/10/31 21:58:30;;;;;;;16.58;8.27;;;;;;;8.71;100.00;100372.16;10399266;28;20041;-88
2023/10/31 22:03:30;;;;;;;18.38;8.35;;;;;;;8.71;100.00;100385.03;10419858;28;20064;-88
2023/10/31 22:08:31;;;;;;;20.90;9.15;;;;;;;8.69;100.00;100383.38;10390495;28;20040;-84
2023/10/31 22:13:31;;;;;;;18.38;10.50;;;;;;;8.69;100.00;100371.56;10406644;28;20056;-87
2023/10/31 22:18:31;;;;;;;16.92;10.27;;;;;;;8.71;100.00;100368.56;10382706;28;20037;-87
2023/10/31 22:23:32;;;;;;;17.45;9.65;;;;;;;8.66;100.00;100359.19;10410168;28;20030;-87
2023/10/31 22:28:33;;;;;;;18.55;11.57;;;;;;;8.69;100.00;100355.94;10399664;28;20061;-88
2023/10/31 22:33:34;;;;;;;22.23;11.35;;;;;;;8.64;100.00;100335.81;10415248;28;20052;-88
2023/10/31 22:38:35;;;;;;;19.05;11.40;;;;;;;8.63;100.00;100356.94;10401049;28;20547;-88
2023/10/31 22:43:35;;;;;;;20.17;10.15;;;;;;;8.52;100.00;100354.34;10389397;28;20049;-88
2023/10/31 22:48:36;;;;;;;24.25;11.02;;;;;;;8.37;100.00;100363.97;10396246;28;20049;-88
2023/10/31 22:53:36;;;;;;;18.42;11.07;;;;;;;8.14;100.00;100355.94;10418007;28;20095;-88
2023/10/31 22:58:37;;;;;;;20.05;10.40;;;;;;;8.00;100.00;100358.19;10378369;28;20071;-88